Time;durP1;ratioP1;P1;durP2;ratioP2;P2;SDS_P1;SDS_P2;PMS_P1;PMS_P2;Temp;Humidity;BMP_temperature;BMP_pressure;BME280_temperature;BME280_humidity;BME280_pressure;Samples;Min_cycle;Max_cycle;Signal;HPM_P1;HPM_P2
2023/03/12 00:02:05;;;;;;;40.67;3.23;;;;;;;22.05;53.50;98965.69;7308625;19;129218;-39
2023/03/12 00:04:33;;;;;;;125.13;7.78;;;;;;;22.06;53.54;98975.19;7306456;19;129458;-43
2023/03/12 00:06:58;;;;;;;69.10;4.78;;;;;;;22.01;54.54;98969.59;7305762;19;129888;-38
2023/03/12 00:09:24;;;;;;;89.00;5.43;;;;;;;22.03;54.21;98970.28;7310804;19;129106;-42
2023/03/12 00:11:49;;;;;;;51.27;4.17;;;;;;;21.98;53.92;98974.16;7308915;19;129078;-40
2023/03/12 00:14:14;;;;;;;41.03;3.50;;;;;;;21.96;54.13;98965.66;7310503;19;129844;-42
2023/03/12 00:16:40;;;;;;;52.87;3.70;;;;;;;21.91;54.40;98967.13;7307608;19;129399;-42
2023/03/12 00:19:05;;;;;;;70.00;4.57;;;;;;;21.92;54.56;98977.41;7311497;19;129729;-39
2023/03/12 00:21:30;;;;;;;25.57;2.50;;;;;;;21.92;54.08;98974.81;7308743;19;129237;-38
2023/03/12 00:23:56;;;;;;;43.97;3.30;;;;;;;21.86;55.24;98969.38;7309270;19;129032;-40
2023/03/12 00:26:21;;;;;;;74.95;4.60;;;;;;;21.89;53.64;98979.53;7308219;19;130465;-42
2023/03/12 00:28:48;;;;;;;40.87;3.13;;;;;;;21.85;53.60;98979.00;7311522;19;128956;-37
2023/03/12 00:31:20;;;;;;;40.33;3.42;;;;;;;21.84;53.70;98982.63;7309515;19;129252;-42
2023/03/12 00:33:48;;;;;;;29.00;2.63;;;;;;;21.83;54.04;98986.19;7310683;19;129489;-41
2023/03/12 00:36:15;;;;;;;53.95;3.92;;;;;;;21.71;54.36;98961.25;7308184;19;130978;-40
2023/03/12 00:38:41;;;;;;;25.98;2.45;;;;;;;21.82;53.68;98984.56;7311015;19;128883;-42
2023/03/12 00:41:06;;;;;;;34.63;2.93;;;;;;;21.81;54.11;98985.56;7309939;19;129983;-41
2023/03/12 00:43:32;;;;;;;40.27;2.90;;;;;;;21.70;54.45;98964.84;7308660;19;129328;-43
2023/03/12 00:45:57;;;;;;;88.55;5.32;;;;;;;21.77;54.54;98975.53;7308488;19;130426;-38
2023/03/12 00:48:22;;;;;;;40.25;2.95;;;;;;;21.77;55.05;98992.06;7310237;19;128910;-39
2023/03/12 00:50:48;;;;;;;38.72;3.08;;;;;;;21.74;53.96;98986.28;7309579;19;129137;-40
2023/03/12 00:53:13;;;;;;;40.78;3.40;;;;;;;21.71;54.83;98983.97;7308100;19;129962;-41
2023/03/12 00:55:38;;;;;;;84.63;5.33;;;;;;;21.71;54.57;98983.97;7307582;19;129817;-42
2023/03/12 00:58:04;;;;;;;31.20;2.73;;;;;;;21.69;54.46;98981.53;7309569;19;129021;-40
2023/03/12 01:00:30;;;;;;;42.00;3.10;;;;;;;21.68;53.82;98986.91;7310050;19;129231;-41
2023/03/12 01:02:56;;;;;;;48.50;3.65;;;;;;;21.68;54.17;98982.47;7308067;19;129486;-39
2023/03/12 01:05:21;;;;;;;60.40;4.03;;;;;;;21.67;54.78;98986.09;7306585;19;129129;-41
2023/03/12 01:07:46;;;;;;;36.60;3.13;;;;;;;21.54;54.25;98958.69;7308588;19;129480;-40
2023/03/12 01:10:14;;;;;;;37.60;2.70;;;;;;;21.65;54.74;98982.00;7307436;19;129107;-39
2023/03/12 01:12:40;;;;;;;37.30;3.17;;;;;;;21.64;54.64;98981.16;7303482;19;130291;-43
2023/03/12 01:15:06;;;;;;;101.97;6.63;;;;;;;21.62;54.39;98980.50;7306938;19;129114;-39
2023/03/12 01:17:32;;;;;;;43.63;3.47;;;;;;;21.61;54.64;98985.88;7307288;19;128994;-42
2023/03/12 01:19:57;;;;;;;64.07;4.47;;;;;;;21.58;54.66;98987.03;7308675;19;129352;-42
2023/03/12 01:22:23;;;;;;;43.80;3.65;;;;;;;21.59;54.64;98983.41;7311744;19;129077;-40
2023/03/12 01:24:48;;;;;;;55.80;3.72;;;;;;;21.60;54.77;98981.63;7315190;19;129248;-40
2023/03/12 01:27:14;;;;;;;94.17;5.70;;;;;;;21.54;54.90;98985.69;7312485;19;128888;-43
2023/03/12 01:29:39;;;;;;;31.92;2.55;;;;;;;21.58;54.22;98991.44;7315692;19;129230;-43
2023/03/12 01:32:05;;;;;;;57.80;4.07;;;;;;;21.54;54.77;98990.06;7313360;19;129158;-40
2023/03/12 01:34:32;;;;;;;53.15;3.60;;;;;;;21.53;54.11;98989.28;7314663;19;130078;-41
2023/03/12 01:36:57;;;;;;;37.83;2.97;;;;;;;21.54;54.65;98988.28;7313438;19;128961;-39
2023/03/12 01:39:24;;;;;;;49.00;3.92;;;;;;;21.53;54.31;98994.50;7314902;19;129472;-40
2023/03/12 01:41:50;;;;;;;64.72;4.20;;;;;;;21.54;54.22;98996.13;7314540;19;131132;-38
2023/03/12 01:44:15;;;;;;;54.53;3.80;;;;;;;21.50;54.47;98989.56;7314580;19;129750;-39
2023/03/12 01:46:42;;;;;;;78.68;5.05;;;;;;;21.50;54.18;98986.94;7313276;19;129595;-40
2023/03/12 01:49:08;;;;;;;40.85;2.97;;;;;;;21.48;54.80;98988.09;7314381;19;128927;-44
2023/03/12 01:51:48;;;;;;;50.78;3.67;;;;;;;21.47;54.76;98987.25;7313653;19;129406;-37
2023/03/12 01:54:43;;;;;;;63.53;3.97;;;;;;;21.43;55.01;98996.41;7314058;19;130112;-40
2023/03/12 01:57:12;;;;;;;65.40;4.40;;;;;;;21.45;54.80;98991.81;7310786;19;129127;-41
2023/03/12 01:59:43;;;;;;;44.15;3.17;;;;;;;21.44;54.78;98984.97;7314315;19;129099;-41
2023/03/12 02:02:09;;;;;;;37.63;2.95;;;;;;;21.32;54.42;98975.72;7312718;19;129765;-38
2023/03/12 02:04:36;;;;;;;48.58;3.55;;;;;;;21.41;54.57;98992.28;7313341;19;129355;-40
2023/03/12 02:07:08;;;;;;;51.42;3.42;;;;;;;21.40;54.88;98993.28;7311214;19;129010;-44
2023/03/12 02:09:38;;;;;;;60.85;4.07;;;;;;;21.37;55.26;98989.16;7314954;19;129490;-40
2023/03/12 02:12:04;;;;;;;34.85;2.92;;;;;;;21.39;55.08;98995.06;7312261;19;130147;-39
2023/03/12 02:14:30;;;;;;;62.13;4.33;;;;;;;21.36;54.75;98995.38;7313083;19;129117;-42
2023/03/12 02:16:55;;;;;;;49.90;3.72;;;;;;;21.37;54.26;98989.16;7310565;19;129053;-41
2023/03/12 02:20:00;;;;;;;75.25;4.55;;;;;;;21.36;54.63;98992.75;7314159;19;129553;-39
2023/03/12 02:22:25;;;;;;;55.40;3.78;;;;;;;21.34;54.65;98992.06;7311429;19;129529;-43
2023/03/12 02:25:05;;;;;;;56.53;3.60;;;;;;;21.33;55.26;98994.84;7313678;19;129098;-39
2023/03/12 02:27:33;;;;;;;87.88;5.35;;;;;;;21.32;54.65;98991.41;7313248;19;129901;-42
2023/03/12 02:29:59;;;;;;;28.63;2.33;;;;;;;21.31;54.73;98997.63;7313124;19;129031;-40
2023/03/12 02:32:28;;;;;;;58.40;3.97;;;;;;;21.31;54.66;98999.41;7307659;19;129177;-40
2023/03/12 02:34:55;;;;;;;73.50;4.55;;;;;;;21.29;55.60;99002.16;7311962;19;129652;-41
2023/03/12 02:37:21;;;;;;;56.65;3.67;;;;;;;21.30;55.28;98992.53;7312372;19;129096;-37
2023/03/12 02:39:54;;;;;;;35.92;2.67;;;;;;;21.34;56.31;98999.09;7313370;19;128787;-42
2023/03/12 02:42:21;;;;;;;52.15;3.78;;;;;;;21.33;56.65;99003.53;7311260;19;130120;-42
2023/03/12 02:44:47;;;;;;;32.60;2.55;;;;;;;21.30;56.18;99009.06;7311749;19;130318;-40
2023/03/12 02:47:12;;;;;;;60.08;3.95;;;;;;;21.32;55.95;99012.31;7311793;19;129127;-42
2023/03/12 02:49:37;;;;;;;60.72;3.88;;;;;;;21.34;54.83;99010.38;7313498;19;129275;-41
2023/03/12 02:52:03;;;;;;;41.95;2.90;;;;;;;21.51;55.16;99006.91;7310583;19;129112;-38
2023/03/12 02:54:29;;;;;;;79.82;4.72;;;;;;;21.63;54.31;99016.16;7311708;19;129454;-39
2023/03/12 02:56:55;;;;;;;73.38;4.88;;;;;;;21.77;54.13;99007.75;7310468;19;129042;-42
2023/03/12 02:59:21;;;;;;;23.63;2.35;;;;;;;21.86;53.69;99021.72;7313224;19;129186;-42
2023/03/12 03:01:50;;;;;;;62.15;4.25;;;;;;;21.82;52.95;99005.50;7309168;19;129638;-39
2023/03/12 03:04:15;;;;;;;70.57;4.45;;;;;;;21.92;53.36;99008.81;7310519;19;130188;-39
2023/03/12 03:06:43;;;;;;;50.75;3.38;;;;;;;22.00;52.87;99022.94;7309849;19;129717;-41
2023/03/12 03:09:08;;;;;;;29.90;2.33;;;;;;;22.01;53.04;99024.56;7313252;19;129057;-43
2023/03/12 03:11:33;;;;;;;89.05;5.32;;;;;;;21.88;53.20;99025.81;7309881;19;130257;-41
2023/03/12 03:13:59;;;;;;;66.03;4.07;;;;;;;21.95;53.43;99029.44;7310892;19;130526;-41
2023/03/12 03:16:24;;;;;;;64.60;4.20;;;;;;;21.84;53.48;99024.50;7310237;19;129140;-42
2023/03/12 03:18:50;;;;;;;48.30;3.70;;;;;;;21.73;53.94;99032.53;7312345;19;129240;-39
2023/03/12 03:21:16;;;;;;;105.57;6.38;;;;;;;21.74;54.12;99039.44;7308950;19;129499;-40
2023/03/12 03:23:47;;;;;;;40.08;2.70;;;;;;;21.71;53.87;99031.91;7309917;19;131020;-41
2023/03/12 03:26:13;;;;;;;62.40;3.85;;;;;;;21.64;54.17;99028.25;7310744;19;129094;-41
2023/03/12 03:28:39;;;;;;;46.85;3.17;;;;;;;21.61;53.71;99041.66;7312625;19;129070;-38
2023/03/12 03:31:04;;;;;;;49.03;3.27;;;;;;;21.54;54.84;99043.22;7311108;19;130704;-40
2023/03/12 03:33:32;;;;;;;45.70;2.80;;;;;;;21.51;54.81;99047.94;7308163;19;129233;-39
2023/03/12 03:35:58;;;;;;;49.95;3.30;;;;;;;21.45;54.50;99045.94;7311359;19;129083;-42
2023/03/12 03:38:25;;;;;;;22.90;1.98;;;;;;;21.48;54.67;99050.84;7312082;19;129236;-42
2023/03/12 03:40:51;;;;;;;39.60;2.83;;;;;;;21.40;55.71;99046.38;7311496;19;129353;-38
2023/03/12 03:43:17;;;;;;;78.80;4.68;;;;;;;21.28;54.93;99028.47;7309020;19;129939;-42
2023/03/12 03:45:43;;;;;;;43.53;2.92;;;;;;;21.36;55.62;99044.22;7309794;19;129352;-39
2023/03/12 03:48:10;;;;;;;44.35;3.00;;;;;;;21.34;55.14;99046.97;7312055;19;129595;-39
2023/03/12 03:50:37;;;;;;;38.53;2.58;;;;;;;21.34;55.59;99039.13;7311301;19;129139;-39
2023/03/12 03:53:03;;;;;;;56.15;3.38;;;;;;;21.32;55.09;99048.91;7307706;19;129689;-41
2023/03/12 03:55:29;;;;;;;36.83;2.58;;;;;;;21.31;54.93;99049.91;7308594;19;129374;-41
2023/03/12 03:57:54;;;;;;;48.17;3.05;;;;;;;21.26;54.95;99052.16;7310760;19;129073;-39
2023/03/12 04:00:20;;;;;;;47.80;3.13;;;;;;;21.27;55.45;99056.41;7310243;19;129382;-40
2023/03/12 04:02:46;;;;;;;66.75;3.72;;;;;;;21.26;55.31;99065.22;7307196;19;130044;-41
2023/03/12 04:05:11;;;;;;;104.22;6.32;;;;;;;21.28;55.22;99058.06;7307918;19;129181;-42
2023/03/12 04:07:37;;;;;;;31.35;2.22;;;;;;;21.24;56.16;99058.47;7310260;19;129431;-40
2023/03/12 04:10:03;;;;;;;26.70;1.98;;;;;;;21.23;56.10;99064.69;7310278;19;129196;-41
2023/03/12 04:12:29;;;;;;;86.25;5.13;;;;;;;21.22;56.03;99069.09;7304864;19;129940;-42
2023/03/12 04:14:54;;;;;;;18.55;1.65;;;;;;;21.19;55.38;99063.38;7310738;19;129265;-44
2023/03/12 04:17:20;;;;;;;57.85;3.80;;;;;;;21.28;55.68;99065.91;7309416;19;130001;-40
2023/03/12 04:19:46;;;;;;;29.52;2.05;;;;;;;21.39;54.69;99070.88;7309422;19;129129;-41
2023/03/12 04:22:11;;;;;;;74.43;4.40;;;;;;;21.52;54.74;99066.09;7306885;19;129370;-41
2023/03/12 04:24:37;;;;;;;30.93;2.33;;;;;;;21.66;54.09;99062.94;7308931;19;129054;-41
2023/03/12 04:27:02;;;;;;;46.97;2.97;;;;;;;21.80;53.60;99075.47;7307924;19;131287;-38
2023/03/12 04:29:28;;;;;;;34.60;2.03;;;;;;;21.96;53.25;99070.34;7309727;19;129417;-42
2023/03/12 04:31:53;;;;;;;54.72;3.15;;;;;;;22.06;52.59;99069.44;7305610;19;130240;-37
2023/03/12 04:34:19;;;;;;;43.00;2.75;;;;;;;22.09;52.97;99063.88;7311148;19;129043;-42
2023/03/12 04:36:45;;;;;;;50.13;3.10;;;;;;;22.08;52.70;99072.72;7307766;19;129172;-38
2023/03/12 04:39:11;;;;;;;42.47;2.38;;;;;;;22.38;52.14;99066.97;7309638;19;129198;-42
2023/03/12 04:41:37;;;;;;;54.87;3.40;;;;;;;22.87;51.00;99069.59;7308813;19;129463;-41
2023/03/12 04:44:04;;;;;;;31.42;2.35;;;;;;;23.27;49.42;99058.38;7310952;19;129058;-44
2023/03/12 04:46:29;;;;;;;30.30;2.27;;;;;;;23.69;49.07;99066.91;7308869;19;129106;-43
2023/03/12 04:48:54;;;;;;;44.03;3.05;;;;;;;23.95;47.98;99078.03;7310501;19;129296;-42
2023/03/12 04:51:20;;;;;;;70.07;3.97;;;;;;;24.11;47.24;99080.63;7310017;19;129538;-40
2023/03/12 04:53:45;;;;;;;49.27;3.07;;;;;;;24.30;47.32;99080.25;7307974;19;131316;-43
2023/03/12 04:56:11;;;;;;;51.03;3.43;;;;;;;24.45;46.62;99077.75;7308837;19;129127;-41
2023/03/12 04:58:37;;;;;;;79.03;4.27;;;;;;;24.48;46.01;99073.97;7313630;19;129135;-42
2023/03/12 05:01:04;;;;;;;36.40;2.20;;;;;;;24.64;46.14;99084.41;7316043;19;130352;-42
2023/03/12 05:03:30;;;;;;;38.88;2.42;;;;;;;24.53;45.86;99063.75;7316718;19;129713;-41
2023/03/12 05:05:55;;;;;;;71.40;4.23;;;;;;;24.73;45.58;99080.75;7312642;19;129412;-37
2023/03/12 05:08:20;;;;;;;93.07;5.20;;;;;;;24.54;46.47;99084.63;7314777;19;129855;-41
2023/03/12 05:10:46;;;;;;;72.00;4.33;;;;;;;24.45;46.40;99089.09;7314507;19;129296;-38
2023/03/12 05:13:20;;;;;;;35.80;2.33;;;;;;;24.31;46.37;99086.34;7313260;19;129051;-41
2023/03/12 05:15:47;;;;;;;52.10;3.05;;;;;;;24.21;47.40;99089.16;7314453;19;129491;-42
2023/03/12 05:18:13;;;;;;;53.10;3.13;;;;;;;24.29;46.64;99091.78;7314930;19;129765;-41
2023/03/12 05:20:39;;;;;;;67.07;4.40;;;;;;;24.21;46.77;99086.53;7315308;19;129221;-43
2023/03/12 05:23:04;;;;;;;79.60;4.40;;;;;;;24.16;47.79;99088.81;7314900;19;129536;-41
2023/03/12 05:25:30;;;;;;;39.97;2.43;;;;;;;24.13;47.18;99083.13;7314499;19;131389;-42
2023/03/12 05:27:55;;;;;;;83.37;4.67;;;;;;;24.39;46.56;99095.00;7314074;19;129497;-40
2023/03/12 05:30:21;;;;;;;89.57;4.93;;;;;;;24.56;46.72;99090.50;7314319;19;129749;-39
2023/03/12 05:32:46;;;;;;;26.33;1.83;;;;;;;24.78;45.87;99086.31;7312624;19;129002;-41
2023/03/12 05:35:12;;;;;;;116.60;7.07;;;;;;;24.85;45.37;99087.28;7311456;19;129050;-38
2023/03/12 05:37:38;;;;;;;59.83;3.30;;;;;;;24.93;45.19;99089.84;7312349;19;129448;-42
2023/03/12 05:40:04;;;;;;;48.78;2.88;;;;;;;24.82;45.85;99085.81;7314772;19;130295;-34
2023/03/12 05:42:29;;;;;;;68.20;3.90;;;;;;;24.86;45.57;99089.72;7311471;19;129106;-39
2023/03/12 05:44:55;;;;;;;59.23;3.57;;;;;;;24.95;45.42;99093.13;7311699;19;129454;-38
2023/03/12 05:47:20;;;;;;;66.57;3.60;;;;;;;24.86;45.62;99084.47;7312126;19;129765;-40
2023/03/12 05:49:46;;;;;;;45.50;2.87;;;;;;;24.91;45.87;99094.47;7311737;19;130063;-42
2023/03/12 05:52:12;;;;;;;43.80;2.43;;;;;;;24.91;45.83;99089.19;7310683;19;129507;-39
2023/03/12 05:54:37;;;;;;;59.73;3.67;;;;;;;24.80;45.56;99072.03;7313209;19;129595;-38
2023/03/12 05:57:02;;;;;;;47.43;2.60;;;;;;;24.82;45.82;99087.63;7313325;19;130282;-42
2023/03/12 05:59:28;;;;;;;41.60;2.43;;;;;;;24.62;45.95;99067.97;7313312;19;129931;-42
2023/03/12 06:01:54;;;;;;;32.30;1.97;;;;;;;24.67;45.49;99094.56;7313078;19;128962;-41
2023/03/12 06:04:20;;;;;;;62.58;3.63;;;;;;;24.51;45.91;99097.28;7312730;19;129755;-43
2023/03/12 06:06:45;;;;;;;55.17;3.27;;;;;;;24.21;47.04;99076.00;7311019;19;129764;-41
2023/03/12 06:09:11;;;;;;;48.83;2.83;;;;;;;24.16;47.46;99088.81;7314406;19;130182;-38
2023/03/12 06:11:36;;;;;;;39.10;2.60;;;;;;;24.14;47.38;99092.63;7311109;19;128973;-42
2023/03/12 06:14:02;;;;;;;51.13;3.00;;;;;;;24.03;47.44;99093.00;7310782;19;129402;-37
2023/03/12 06:16:28;;;;;;;67.47;3.73;;;;;;;24.02;47.42;99081.66;7311944;19;129580;-37
2023/03/12 06:19:00;;;;;;;40.95;2.65;;;;;;;24.12;47.10;99090.16;7309555;19;130643;-40
2023/03/12 06:21:29;;;;;;;84.28;4.90;;;;;;;24.17;47.39;99094.91;7307302;19;129904;-37
2023/03/12 06:23:55;;;;;;;57.22;3.22;;;;;;;24.20;47.11;99089.31;7312380;19;128875;-40
2023/03/12 06:26:22;;;;;;;57.73;3.30;;;;;;;24.29;46.45;99094.41;7309808;19;129058;-43
2023/03/12 06:28:48;;;;;;;;;;;;;;;24.28;46.79;99095.38;7313262;19;129616;-41
2023/03/12 06:31:14;;;;;;;53.85;3.33;;;;;;;24.36;46.34;99100.59;7308995;19;130274;-41
2023/03/12 06:33:39;;;;;;;62.95;3.58;;;;;;;24.42;46.77;99099.09;7310042;19;129590;-40
2023/03/12 06:36:06;;;;;;;68.50;3.90;;;;;;;24.49;46.20;99100.06;7311557;19;129017;-41
2023/03/12 06:38:32;;;;;;;46.00;2.70;;;;;;;24.55;46.35;99101.19;7313385;19;129701;-40
2023/03/12 06:40:57;;;;;;;54.77;3.20;;;;;;;24.49;46.35;99100.88;7311700;19;129224;-38
2023/03/12 06:43:24;;;;;;;57.90;3.27;;;;;;;24.56;46.52;99101.00;7312145;19;129411;-42
2023/03/12 06:45:49;;;;;;;62.63;3.75;;;;;;;24.69;45.80;99095.25;7311144;19;129601;-43
2023/03/12 06:48:15;;;;;;;51.23;2.97;;;;;;;24.65;46.05;99094.75;7313543;19;130095;-42
2023/03/12 06:50:41;;;;;;;75.70;4.60;;;;;;;24.72;46.31;99100.16;7301232;19;131550;-41
2023/03/12 06:53:07;;;;;;;48.37;2.60;;;;;;;24.71;45.93;99099.34;7307389;19;130537;-41
2023/03/12 06:55:32;;;;;;;44.30;2.43;;;;;;;24.76;45.77;99096.22;7307917;19;129651;-42
2023/03/12 06:57:57;;;;;;;27.20;1.93;;;;;;;24.84;45.75;99098.81;7310904;19;129766;-43
2023/03/12 07:00:23;;;;;;;98.00;5.63;;;;;;;24.81;45.33;99093.88;7305056;19;130009;-37
2023/03/12 07:02:48;;;;;;;63.13;3.30;;;;;;;24.94;45.32;99104.66;7309164;19;129516;-39
2023/03/12 07:05:13;;;;;;;151.20;9.03;;;;;;;24.77;43.47;99090.78;7309851;19;129019;-42
2023/03/12 07:07:39;;;;;;;27.93;1.83;;;;;;;24.72;43.64;99098.38;7310935;19;129428;-40
2023/03/12 07:10:05;;;;;;;62.50;3.87;;;;;;;24.60;44.85;99096.22;7311243;19;129329;-42
2023/03/12 07:12:31;;;;;;;138.52;7.75;;;;;;;24.55;44.79;99093.31;7299905;19;130745;-43
2023/03/12 07:14:57;;;;;;;145.55;8.60;;;;;;;24.34;45.33;99097.34;7284743;19;131017;-39
2023/03/12 07:17:24;;;;;;;159.73;9.07;;;;;;;24.21;45.10;99090.97;7283427;19;131751;-38
2023/03/12 07:19:50;;;;;;;103.45;5.97;;;;;;;24.16;45.34;99099.34;7289742;19;131157;-43
2023/03/12 07:22:15;;;;;;;173.43;9.87;;;;;;;24.11;45.04;99098.22;7282514;19;130321;-43
2023/03/12 07:24:40;;;;;;;130.73;7.35;;;;;;;24.07;45.11;99091.66;7288321;19;130689;-42
2023/03/12 07:27:06;;;;;;;303.20;17.25;;;;;;;24.09;45.21;99087.88;7279789;19;130482;-42
2023/03/12 07:29:31;;;;;;;120.63;6.70;;;;;;;24.13;45.09;99098.88;7293520;19;130336;-38
2023/03/12 07:31:57;;;;;;;137.67;8.13;;;;;;;24.25;44.86;99098.34;7289629;19;129122;-43
2023/03/12 07:34:22;;;;;;;114.60;6.90;;;;;;;24.25;43.96;99087.00;7284995;19;130493;-42
2023/03/12 07:36:47;;;;;;;141.60;8.37;;;;;;;24.36;43.92;99090.09;7283846;19;130339;-42
2023/03/12 07:39:12;;;;;;;138.88;8.05;;;;;;;24.42;44.02;99099.94;7291036;19;129584;-39
2023/03/12 07:41:38;;;;;;;142.77;8.00;;;;;;;24.49;44.23;99095.63;7281476;19;130492;-43
2023/03/12 07:44:04;;;;;;;280.40;16.63;;;;;;;24.60;44.18;99096.22;7285444;19;131171;-37
2023/03/12 07:46:29;;;;;;;147.77;8.50;;;;;;;24.64;43.54;99097.53;7281908;19;130484;-42
2023/03/12 07:48:55;;;;;;;152.67;8.70;;;;;;;24.66;44.17;99098.19;7290986;19;130405;-43
2023/03/12 07:51:20;;;;;;;146.90;8.37;;;;;;;24.68;43.82;99101.47;7283410;19;130672;-41
2023/03/12 07:53:46;;;;;;;91.03;5.72;;;;;;;24.72;43.50;99105.41;7287264;19;131005;-42
2023/03/12 07:56:11;;;;;;;86.68;5.18;;;;;;;24.81;43.23;99101.78;7286355;19;131066;-41
2023/03/12 07:58:37;;;;;;;147.93;8.43;;;;;;;24.78;43.69;99105.56;7284721;19;132827;-42
2023/03/12 08:01:03;;;;;;;112.40;6.45;;;;;;;24.86;43.71;99102.09;7291039;19;131732;-42
2023/03/12 08:03:29;;;;;;;75.00;4.57;;;;;;;24.88;43.48;99107.97;7301960;19;129266;-42
2023/03/12 08:06:00;;;;;;;48.43;2.80;;;;;;;24.76;43.90;99104.09;7306392;19;130046;-38
2023/03/12 08:08:26;;;;;;;96.78;5.53;;;;;;;24.59;43.86;99110.38;7305031;19;129641;-40
2023/03/12 08:10:52;;;;;;;59.27;3.53;;;;;;;24.45;44.23;99118.00;7303283;19;130297;-42
2023/03/12 08:13:17;;;;;;;64.43;4.00;;;;;;;24.36;44.45;99111.09;7304734;19;130117;-43
2023/03/12 08:15:43;;;;;;;68.77;4.20;;;;;;;24.22;45.33;99119.69;7304214;19;130689;-42
2023/03/12 08:18:09;;;;;;;71.03;4.17;;;;;;;24.13;44.95;99115.44;7305555;19;129401;-42
2023/03/12 08:20:35;;;;;;;33.20;2.27;;;;;;;24.09;45.60;99113.31;7305621;19;129103;-41
2023/03/12 08:23:00;;;;;;;48.83;3.30;;;;;;;24.05;45.45;99106.75;7307280;19;129706;-43
2023/03/12 08:25:25;;;;;;;62.90;4.07;;;;;;;24.04;45.85;99098.06;7303442;19;129310;-41
2023/03/12 08:27:51;;;;;;;79.47;4.60;;;;;;;24.21;45.45;99120.66;7309029;19;129064;-42
2023/03/12 08:30:17;;;;;;;75.68;4.60;;;;;;;24.23;45.72;99121.31;7306058;19;130016;-41
2023/03/12 08:32:42;;;;;;;57.43;3.47;;;;;;;24.32;44.95;99122.13;7305518;19;129661;-41
2023/03/12 08:35:09;;;;;;;135.37;8.50;;;;;;;24.36;45.10;99111.09;7307741;19;129132;-43
2023/03/12 08:37:34;;;;;;;71.50;3.97;;;;;;;24.48;44.59;99118.66;7308354;19;129209;-41
2023/03/12 08:40:00;;;;;;;87.53;5.37;;;;;;;24.59;44.86;99120.91;7305010;19;129290;-41
2023/03/12 08:42:25;;;;;;;40.53;2.77;;;;;;;24.65;44.25;99114.94;7304656;19;129870;-41
2023/03/12 08:44:50;;;;;;;72.87;4.03;;;;;;;24.68;45.01;99115.47;7304212;19;129401;-37
2023/03/12 08:47:16;;;;;;;80.07;4.77;;;;;;;24.79;44.83;99122.16;7308106;19;130390;-40
2023/03/12 08:49:41;;;;;;;35.93;2.37;;;;;;;24.76;43.89;99112.00;7305884;19;129591;-43
2023/03/12 08:52:07;;;;;;;67.43;4.33;;;;;;;24.80;44.72;99115.91;7301299;19;129181;-41
2023/03/12 08:54:32;;;;;;;105.13;5.90;;;;;;;24.90;44.48;99114.72;7302705;19;129552;-44
2023/03/12 08:56:59;;;;;;;102.00;6.10;;;;;;;24.94;44.22;99115.19;7301560;19;129155;-41
2023/03/12 08:59:24;;;;;;;69.97;3.88;;;;;;;24.91;44.07;99102.34;7303440;19;129112;-44
2023/03/12 09:01:49;;;;;;;67.30;3.93;;;;;;;24.85;44.73;99108.31;7301151;19;129899;-43
2023/03/12 09:04:15;;;;;;;86.57;5.07;;;;;;;24.69;44.33;99096.09;7303376;19;132042;-40
2023/03/12 09:06:40;;;;;;;60.63;3.70;;;;;;;24.64;44.81;99108.06;7305521;19;129667;-39
2023/03/12 09:09:07;;;;;;;86.77;4.77;;;;;;;24.48;45.51;99104.50;7309581;19;128983;-41
2023/03/12 09:11:34;;;;;;;55.85;3.28;;;;;;;24.32;45.90;99099.31;7300742;19;130308;-42
2023/03/12 09:14:00;;;;;;;;;;;;;;;24.18;45.61;99109.69;7304264;19;129750;-42
2023/03/12 09:16:26;;;;;;;132.10;7.95;;;;;;;24.15;45.37;99110.84;7293392;19;130387;-36
2023/03/12 09:18:51;;;;;;;88.70;4.83;;;;;;;24.13;45.29;99112.81;7300461;19;129003;-42
2023/03/12 09:21:17;;;;;;;73.95;4.43;;;;;;;24.20;45.22;99108.53;7297948;19;129723;-40
2023/03/12 09:23:42;;;;;;;61.10;3.70;;;;;;;24.20;44.69;99116.41;7304797;19;129517;-40
2023/03/12 09:26:10;;;;;;;96.87;5.63;;;;;;;24.17;44.37;99092.28;7298871;19;130315;-38
2023/03/12 09:28:35;;;;;;;83.20;5.10;;;;;;;24.41;43.26;99100.91;7304113;19;130244;-42
2023/03/12 09:31:03;;;;;;;62.67;3.90;;;;;;;24.48;43.51;99102.88;7302828;19;129803;-41
2023/03/12 09:33:28;;;;;;;54.85;3.75;;;;;;;24.49;43.73;99106.13;7304590;19;130260;-41
2023/03/12 09:35:58;;;;;;;78.03;4.23;;;;;;;24.58;43.26;99092.97;7305652;19;129578;-42
2023/03/12 09:38:24;;;;;;;92.75;5.05;;;;;;;24.65;43.93;99093.91;7305407;19;128796;-42
2023/03/12 09:40:50;;;;;;;48.17;3.10;;;;;;;24.68;43.94;99094.44;7307568;19;129078;-41
2023/03/12 09:43:40;;;;;;;63.13;3.80;;;;;;;24.73;43.15;99086.84;7312273;19;130850;-37
2023/03/12 09:46:16;;;;;;;43.38;2.97;;;;;;;24.88;43.39;99082.50;7309856;19;129159;-41
2023/03/12 09:48:42;;;;;;;33.55;2.22;;;;;;;24.86;43.07;99081.03;7314153;19;129610;-39
2023/03/12 09:51:18;;;;;;;43.97;2.90;;;;;;;24.96;42.98;99086.88;7311531;19;129820;-43
2023/03/12 09:53:52;;;;;;;58.60;3.37;;;;;;;24.87;43.34;99077.41;7313319;19;129665;-42
2023/03/12 09:56:20;;;;;;;50.83;3.28;;;;;;;24.88;43.46;99084.28;7312459;19;129165;-43
2023/03/12 09:58:47;;;;;;;58.10;3.50;;;;;;;24.77;43.36;99088.16;7314096;19;129109;-42
2023/03/12 10:01:39;;;;;;;35.60;2.60;;;;;;;24.55;43.82;99077.53;7312151;19;130275;-40
2023/03/12 10:04:26;;;;;;;41.30;2.83;;;;;;;24.30;44.84;99059.25;7312803;19;129745;-41
2023/03/12 10:07:14;;;;;;;66.15;4.13;;;;;;;24.31;45.12;99071.38;7312797;19;129419;-40
2023/03/12 10:10:01;;;;;;;55.45;3.55;;;;;;;24.11;45.30;99064.06;7313053;19;130432;-38
2023/03/12 10:13:04;;;;;;;34.00;2.40;;;;;;;23.96;45.63;99053.41;7311004;19;129470;-39
2023/03/12 10:15:41;;;;;;;17.52;1.67;;;;;;;23.98;45.88;99056.72;7312183;19;129617;-42
2023/03/12 10:18:42;;;;;;;42.22;2.80;;;;;;;24.02;45.99;99058.03;7314967;19;128945;-39
2023/03/12 10:21:38;;;;;;;62.58;3.78;;;;;;;24.10;45.34;99060.63;7310156;19;129149;-39
2023/03/12 10:24:11;;;;;;;31.25;2.13;;;;;;;24.23;45.03;99055.66;7314544;19;129727;-41
2023/03/12 10:26:39;;;;;;;33.67;2.17;;;;;;;24.27;45.46;99048.25;7310945;19;130279;-41
2023/03/12 10:29:10;;;;;;;34.88;2.40;;;;;;;24.37;44.81;99051.50;7312891;19;129818;-42
2023/03/12 10:31:58;;;;;;;71.95;4.25;;;;;;;24.46;44.56;99048.66;7312434;19;129763;-44
2023/03/12 10:34:44;;;;;;;47.35;2.78;;;;;;;24.53;44.45;99046.16;7310685;19;129882;-40
2023/03/12 10:37:13;;;;;;;50.05;3.10;;;;;;;24.62;44.28;99039.06;7312583;19;129839;-41
2023/03/12 10:39:39;;;;;;;70.13;4.43;;;;;;;24.68;43.94;99041.03;7312318;19;129395;-38
2023/03/12 10:42:14;;;;;;;40.87;2.60;;;;;;;24.62;44.01;99025.91;7312050;19;129056;-40
2023/03/12 10:44:40;;;;;;;68.07;4.13;;;;;;;24.78;44.41;99042.44;7311000;19;129388;-42
2023/03/12 10:47:27;;;;;;;9.67;1.20;;;;;;;24.90;44.06;99029.72;7310430;19;129211;-39
2023/03/12 10:49:52;;;;;;;57.80;3.10;;;;;;;24.84;44.06;99040.94;7310758;19;129371;-38
2023/03/12 10:52:20;;;;;;;88.23;4.87;;;;;;;24.83;44.09;99034.03;7309276;19;129331;-41
2023/03/12 10:54:51;;;;;;;41.65;2.50;;;;;;;24.70;44.45;99029.34;7307477;19;129088;-42
2023/03/12 10:57:17;;;;;;;42.22;2.65;;;;;;;24.54;44.66;99028.59;7310252;19;131792;-41
2023/03/12 10:59:46;;;;;;;62.40;3.83;;;;;;;24.43;44.90;99025.34;7311397;19;129513;-40
2023/03/12 11:02:29;;;;;;;77.25;4.22;;;;;;;24.27;45.46;99020.19;7308814;19;130790;-45
2023/03/12 11:04:56;;;;;;;63.13;3.53;;;;;;;24.11;45.81;99028.09;7310674;19;129189;-42
2023/03/12 11:07:34;;;;;;;40.85;2.60;;;;;;;24.00;45.62;99025.84;7310749;19;130247;-42
2023/03/12 11:10:19;;;;;;;;;;;;;;;23.88;46.31;99026.38;7312605;19;129070;-44
2023/03/12 11:12:57;;;;;;;36.25;2.22;;;;;;;23.88;46.70;99010.59;7308813;19;129199;-43
2023/03/12 11:15:33;;;;;;;53.20;3.47;;;;;;;23.89;46.13;99017.47;7309657;19;129236;-42
2023/03/12 11:18:18;;;;;;;46.08;2.83;;;;;;;24.00;45.96;99004.84;7311456;19;130993;-42
2023/03/12 11:20:44;;;;;;;51.13;3.08;;;;;;;24.13;45.85;99005.13;7311187;19;129034;-39